Meteo Giornale » Osservazioni meteo Stati Uniti (USA) » Riverside Riverside

ore: 07:53 - Osservazioni Meteo Riverside Riverside
Lat. 33° 57' N Lon. 117° 27' W Alt. 248 metri s.l.m.

sereno

21 °C

Sereno

Temp. 24 Ore

20 °C

35 °C

Nord

0 Km/h

Dew point 18 °C

Umidità 82 %

Visibilità  14 Km

Il sole sorge alle ore 06:23

Il sole tramonta alle ore 19:17

Data e Ora Cielo e Fenomeni T °C DP °C Um. % Pres. hPa Vis. km Vento km/h
Oggi h: 07:53 sereno Sereno 21 18 82 1014 14 N 0
Oggi h: 06:53 sereno Sereno 20 18 88 1013 13 N 0
Oggi h: 05:53 sereno Sereno 20 18 88 1012 14 N 5.5
Oggi h: 04:53 sereno Sereno 21 18 82 1012 10 N 0
Oggi h: 03:53 sereno Sereno 21 18 82 1012 10 N 5.5
Oggi h: 02:53 sereno Sereno 22 18 78 1012 10 N 0
Oggi h: 01:53 sereno Sereno 22 18 78 1012 10 N 0
Oggi h: 00:53 sereno Sereno 22 18 78 1012 10 O 7.4
Ieri h: 23:53 sereno Sereno 22 18 78 1012 10 O 7.4
Ieri h: 22:53 sereno Sereno 23 17 68 1012 10 N 0
Ieri h: 21:53 sereno Sereno 24 17 64 1012 10 N 7.4
Ieri h: 20:53 sereno Sereno 25 17 61 1011 10 O/SO 13
Ieri h: 19:53 sereno Sereno 27 18 57 1010 10 O 13
Ieri h: 18:53 sereno Sereno 29 17 48 1010 10 O 16.7
Ieri h: 17:53 sereno Sereno 32 16 38 1009 10 O/NO 13
Ieri h: 16:53 sereno Sereno 33 17 38 1009 10 O 27.8
Ieri h: 15:53 sereno Sereno 34 18 38 1010 10 O 16.7
Ieri h: 14:53 sereno Sereno 34 18 38 1010 10 O 25.9
Ieri h: 13:53 sereno Sereno 35 16 32 1011 10 O/NO 13
Ieri h: 12:53 sereno Sereno 34 14 30 1011 10 N 9.3
Ieri h: 11:53 sereno Sereno 33 16 36 1012 10 N 5.5
Ieri h: 10:53 sereno Sereno 31 16 40 1012 10 N 0
Ieri h: 09:53 sereno Sereno 28 17 51 1012 10 N 5.5
Ieri h: 08:53 sereno Sereno 26 18 61 1012 10 N 0